sensor_id;sensor_type;location;lat;lon;timestamp;temperature;humidity
15384;DHT22;7790;53.022;12.968;2023-06-26T00:01:58;22.20;63.30
15384;DHT22;7790;53.022;12.968;2023-06-26T00:05:58;22.30;63.40
15384;DHT22;7790;53.022;12.968;2023-06-26T00:10:03;22.20;63.50
15384;DHT22;7790;53.022;12.968;2023-06-26T00:14:04;22.20;63.50
15384;DHT22;7790;53.022;12.968;2023-06-26T00:18:05;22.20;63.40
15384;DHT22;7790;53.022;12.968;2023-06-26T00:22:05;22.20;63.50
15384;DHT22;7790;53.022;12.968;2023-06-26T00:26:06;22.20;63.30
15384;DHT22;7790;53.022;12.968;2023-06-26T00:30:08;22.20;63.30
15384;DHT22;7790;53.022;12.968;2023-06-26T00:34:10;22.20;63.20
15384;DHT22;7790;53.022;12.968;2023-06-26T00:38:10;22.20;63.10
15384;DHT22;7790;53.022;12.968;2023-06-26T00:42:12;22.10;63.00
15384;DHT22;7790;53.022;12.968;2023-06-26T00:46:13;22.10;63.00
15384;DHT22;7790;53.022;12.968;2023-06-26T00:50:15;22.10;63.00
15384;DHT22;7790;53.022;12.968;2023-06-26T00:54:18;22.10;62.90
15384;DHT22;7790;53.022;12.968;2023-06-26T00:58:23;22.10;62.90
15384;DHT22;7790;53.022;12.968;2023-06-26T01:02:25;22.10;62.80
15384;DHT22;7790;53.022;12.968;2023-06-26T01:06:28;22.10;62.70
15384;DHT22;7790;53.022;12.968;2023-06-26T01:10:32;22.10;62.70
15384;DHT22;7790;53.022;12.968;2023-06-26T01:14:34;22.10;62.50
15384;DHT22;7790;53.022;12.968;2023-06-26T01:18:38;22.00;62.20
15384;DHT22;7790;53.022;12.968;2023-06-26T01:22:48;22.00;62.30
15384;DHT22;7790;53.022;12.968;2023-06-26T01:26:56;22.00;62.20
15384;DHT22;7790;53.022;12.968;2023-06-26T01:30:58;22.00;62.20
15384;DHT22;7790;53.022;12.968;2023-06-26T01:35:00;22.00;62.20
15384;DHT22;7790;53.022;12.968;2023-06-26T01:39:04;22.00;62.20
15384;DHT22;7790;53.022;12.968;2023-06-26T01:43:07;22.00;62.10
15384;DHT22;7790;53.022;12.968;2023-06-26T01:47:11;22.00;62.10
15384;DHT22;7790;53.022;12.968;2023-06-26T01:51:18;22.00;62.00
15384;DHT22;7790;53.022;12.968;2023-06-26T01:59:40;22.00;62.00
15384;DHT22;7790;53.022;12.968;2023-06-26T02:03:42;22.00;62.00
15384;DHT22;7790;53.022;12.968;2023-06-26T02:07:43;21.90;62.00
15384;DHT22;7790;53.022;12.968;2023-06-26T02:11:44;21.90;62.10
15384;DHT22;7790;53.022;12.968;2023-06-26T02:15:45;21.90;62.00
15384;DHT22;7790;53.022;12.968;2023-06-26T02:19:46;21.90;62.00
15384;DHT22;7790;53.022;12.968;2023-06-26T02:23:48;21.90;62.10
15384;DHT22;7790;53.022;12.968;2023-06-26T02:27:48;21.90;62.00
15384;DHT22;7790;53.022;12.968;2023-06-26T02:31:49;21.90;62.00
15384;DHT22;7790;53.022;12.968;2023-06-26T02:35:50;21.90;62.00
15384;DHT22;7790;53.022;12.968;2023-06-26T02:39:51;21.90;62.00
15384;DHT22;7790;53.022;12.968;2023-06-26T02:43:52;21.90;61.80
15384;DHT22;7790;53.022;12.968;2023-06-26T02:47:53;21.90;61.80
15384;DHT22;7790;53.022;12.968;2023-06-26T02:51:54;21.90;61.70
15384;DHT22;7790;53.022;12.968;2023-06-26T02:56:00;21.90;61.60
15384;DHT22;7790;53.022;12.968;2023-06-26T03:00:01;21.90;61.60
15384;DHT22;7790;53.022;12.968;2023-06-26T03:04:04;21.90;61.60
15384;DHT22;7790;53.022;12.968;2023-06-26T03:08:09;21.90;61.70
15384;DHT22;7790;53.022;12.968;2023-06-26T03:12:09;21.90;61.90
15384;DHT22;7790;53.022;12.968;2023-06-26T03:16:10;21.90;61.90
15384;DHT22;7790;53.022;12.968;2023-06-26T03:20:12;21.90;62.00
15384;DHT22;7790;53.022;12.968;2023-06-26T03:24:28;21.90;62.00
15384;DHT22;7790;53.022;12.968;2023-06-26T03:28:28;21.90;62.10
15384;DHT22;7790;53.022;12.968;2023-06-26T03:32:31;21.90;62.30
15384;DHT22;7790;53.022;12.968;2023-06-26T03:36:33;21.90;62.50
15384;DHT22;7790;53.022;12.968;2023-06-26T03:40:35;21.90;62.60
15384;DHT22;7790;53.022;12.968;2023-06-26T03:44:36;21.90;62.80
15384;DHT22;7790;53.022;12.968;2023-06-26T03:48:37;21.90;63.10
15384;DHT22;7790;53.022;12.968;2023-06-26T03:52:39;21.90;63.40
15384;DHT22;7790;53.022;12.968;2023-06-26T03:56:39;21.90;63.50
15384;DHT22;7790;53.022;12.968;2023-06-26T04:00:40;21.90;63.70
15384;DHT22;7790;53.022;12.968;2023-06-26T04:04:41;22.00;63.80
15384;DHT22;7790;53.022;12.968;2023-06-26T04:08:42;22.00;63.90
15384;DHT22;7790;53.022;12.968;2023-06-26T04:12:43;21.90;64.10
15384;DHT22;7790;53.022;12.968;2023-06-26T04:16:44;21.90;64.20
15384;DHT22;7790;53.022;12.968;2023-06-26T04:21:11;21.90;64.30
15384;DHT22;7790;53.022;12.968;2023-06-26T04:25:12;21.90;64.40
15384;DHT22;7790;53.022;12.968;2023-06-26T04:29:13;21.90;64.50
15384;DHT22;7790;53.022;12.968;2023-06-26T04:33:14;22.00;64.60
15384;DHT22;7790;53.022;12.968;2023-06-26T04:37:15;22.00;64.80
15384;DHT22;7790;53.022;12.968;2023-06-26T04:41:17;22.00;64.80
15384;DHT22;7790;53.022;12.968;2023-06-26T04:45:18;22.00;64.90
15384;DHT22;7790;53.022;12.968;2023-06-26T04:49:19;22.00;65.00
15384;DHT22;7790;53.022;12.968;2023-06-26T04:53:21;22.00;65.00
15384;DHT22;7790;53.022;12.968;2023-06-26T04:57:23;22.00;65.10
15384;DHT22;7790;53.022;12.968;2023-06-26T05:01:24;22.10;65.10
15384;DHT22;7790;53.022;12.968;2023-06-26T05:05:25;22.10;65.00
15384;DHT22;7790;53.022;12.968;2023-06-26T05:09:26;22.10;65.00
15384;DHT22;7790;53.022;12.968;2023-06-26T05:13:27;22.10;65.60
15384;DHT22;7790;53.022;12.968;2023-06-26T05:17:27;22.00;66.30
15384;DHT22;7790;53.022;12.968;2023-06-26T05:21:29;22.00;66.80
15384;DHT22;7790;53.022;12.968;2023-06-26T05:25:30;21.70;71.50
15384;DHT22;7790;53.022;12.968;2023-06-26T05:29:32;21.40;75.90
15384;DHT22;7790;53.022;12.968;2023-06-26T05:33:35;21.30;79.40
15384;DHT22;7790;53.022;12.968;2023-06-26T05:37:37;21.20;79.50
15384;DHT22;7790;53.022;12.968;2023-06-26T05:41:38;21.20;80.70
15384;DHT22;7790;53.022;12.968;2023-06-26T05:45:40;21.30;80.00
15384;DHT22;7790;53.022;12.968;2023-06-26T05:49:41;21.30;81.20
15384;DHT22;7790;53.022;12.968;2023-06-26T05:53:42;21.40;80.30
15384;DHT22;7790;53.022;12.968;2023-06-26T05:57:45;21.40;79.60
15384;DHT22;7790;53.022;12.968;2023-06-26T06:01:46;21.50;78.80
15384;DHT22;7790;53.022;12.968;2023-06-26T06:05:47;21.60;80.00
15384;DHT22;7790;53.022;12.968;2023-06-26T06:09:48;21.70;78.50
15384;DHT22;7790;53.022;12.968;2023-06-26T06:13:49;21.80;78.30
15384;DHT22;7790;53.022;12.968;2023-06-26T06:17:50;21.90;77.00
15384;DHT22;7790;53.022;12.968;2023-06-26T06:21:51;22.00;75.90
15384;DHT22;7790;53.022;12.968;2023-06-26T06:25:51;22.10;75.30
15384;DHT22;7790;53.022;12.968;2023-06-26T06:29:52;22.20;74.90
15384;DHT22;7790;53.022;12.968;2023-06-26T06:33:54;22.20;73.50
15384;DHT22;7790;53.022;12.968;2023-06-26T06:37:54;22.30;72.70
15384;DHT22;7790;53.022;12.968;2023-06-26T06:41:55;22.30;71.50
15384;DHT22;7790;53.022;12.968;2023-06-26T06:45:56;22.40;71.10
15384;DHT22;7790;53.022;12.968;2023-06-26T06:49:57;22.50;70.00
15384;DHT22;7790;53.022;12.968;2023-06-26T06:53:58;22.60;69.90
15384;DHT22;7790;53.022;12.968;2023-06-26T06:57:59;22.60;69.20
15384;DHT22;7790;53.022;12.968;2023-06-26T07:01:59;22.70;69.30
15384;DHT22;7790;53.022;12.968;2023-06-26T07:06:01;22.80;69.50
15384;DHT22;7790;53.022;12.968;2023-06-26T07:10:14;22.80;69.40
15384;DHT22;7790;53.022;12.968;2023-06-26T07:14:15;22.90;67.70
15384;DHT22;7790;53.022;12.968;2023-06-26T07:18:16;23.00;66.60
15384;DHT22;7790;53.022;12.968;2023-06-26T07:22:17;22.90;66.10
15384;DHT22;7790;53.022;12.968;2023-06-26T07:26:21;23.10;65.70
15384;DHT22;7790;53.022;12.968;2023-06-26T07:30:22;22.90;65.90
15384;DHT22;7790;53.022;12.968;2023-06-26T07:34:24;22.90;66.50
15384;DHT22;7790;53.022;12.968;2023-06-26T07:38:25;22.90;66.50
15384;DHT22;7790;53.022;12.968;2023-06-26T07:42:26;22.90;66.40
15384;DHT22;7790;53.022;12.968;2023-06-26T07:46:27;22.90;66.30
15384;DHT22;7790;53.022;12.968;2023-06-26T07:50:28;22.90;66.10
15384;DHT22;7790;53.022;12.968;2023-06-26T07:54:28;22.90;65.90
15384;DHT22;7790;53.022;12.968;2023-06-26T07:58:30;23.00;65.80
15384;DHT22;7790;53.022;12.968;2023-06-26T08:02:31;23.00;65.50
15384;DHT22;7790;53.022;12.968;2023-06-26T08:06:32;23.00;65.40
15384;DHT22;7790;53.022;12.968;2023-06-26T08:10:32;23.00;65.10
15384;DHT22;7790;53.022;12.968;2023-06-26T08:14:35;23.00;65.10
15384;DHT22;7790;53.022;12.968;2023-06-26T08:18:36;23.10;64.90
15384;DHT22;7790;53.022;12.968;2023-06-26T08:22:37;23.10;64.60
15384;DHT22;7790;53.022;12.968;2023-06-26T08:26:37;23.20;64.40
15384;DHT22;7790;53.022;12.968;2023-06-26T08:30:38;23.20;64.40
15384;DHT22;7790;53.022;12.968;2023-06-26T08:34:39;23.20;64.50
15384;DHT22;7790;53.022;12.968;2023-06-26T08:38:41;23.30;64.60
15384;DHT22;7790;53.022;12.968;2023-06-26T08:42:42;23.30;64.80
15384;DHT22;7790;53.022;12.968;2023-06-26T08:46:43;23.30;64.70
15384;DHT22;7790;53.022;12.968;2023-06-26T08:50:44;23.30;64.50
15384;DHT22;7790;53.022;12.968;2023-06-26T08:54:52;23.30;64.40
15384;DHT22;7790;53.022;12.968;2023-06-26T08:58:55;23.30;64.20
15384;DHT22;7790;53.022;12.968;2023-06-26T09:02:56;23.40;63.90
15384;DHT22;7790;53.022;12.968;2023-06-26T09:06:57;23.30;63.60
15384;DHT22;7790;53.022;12.968;2023-06-26T09:10:58;23.30;63.40
15384;DHT22;7790;53.022;12.968;2023-06-26T09:14:59;23.40;63.30
15384;DHT22;7790;53.022;12.968;2023-06-26T09:19:00;23.40;63.10
15384;DHT22;7790;53.022;12.968;2023-06-26T09:23:04;23.50;63.00
15384;DHT22;7790;53.022;12.968;2023-06-26T09:27:05;23.50;63.10
15384;DHT22;7790;53.022;12.968;2023-06-26T09:31:07;23.40;62.70
15384;DHT22;7790;53.022;12.968;2023-06-26T09:35:08;23.30;62.40
15384;DHT22;7790;53.022;12.968;2023-06-26T09:39:10;23.20;62.40
15384;DHT22;7790;53.022;12.968;2023-06-26T09:43:13;23.20;62.40
15384;DHT22;7790;53.022;12.968;2023-06-26T09:47:19;23.20;62.30
15384;DHT22;7790;53.022;12.968;2023-06-26T09:51:22;23.20;62.30
15384;DHT22;7790;53.022;12.968;2023-06-26T09:55:24;23.10;62.30
15384;DHT22;7790;53.022;12.968;2023-06-26T09:59:25;23.10;62.20
15384;DHT22;7790;53.022;12.968;2023-06-26T10:03:26;23.10;62.20
15384;DHT22;7790;53.022;12.968;2023-06-26T10:07:27;23.10;62.30
15384;DHT22;7790;53.022;12.968;2023-06-26T10:11:56;23.10;62.30
15384;DHT22;7790;53.022;12.968;2023-06-26T10:15:59;23.10;62.30
15384;DHT22;7790;53.022;12.968;2023-06-26T10:20:02;23.10;62.30
15384;DHT22;7790;53.022;12.968;2023-06-26T10:24:05;23.10;62.30
15384;DHT22;7790;53.022;12.968;2023-06-26T10:28:08;23.10;62.30
15384;DHT22;7790;53.022;12.968;2023-06-26T10:32:11;23.10;62.30
15384;DHT22;7790;53.022;12.968;2023-06-26T10:36:18;23.10;62.30
15384;DHT22;7790;53.022;12.968;2023-06-26T10:40:27;23.10;62.20
15384;DHT22;7790;53.022;12.968;2023-06-26T10:44:43;23.10;62.20
15384;DHT22;7790;53.022;12.968;2023-06-26T10:48:57;23.20;62.20
15384;DHT22;7790;53.022;12.968;2023-06-26T10:57:23;23.10;62.10
15384;DHT22;7790;53.022;12.968;2023-06-26T11:01:26;23.10;62.20
15384;DHT22;7790;53.022;12.968;2023-06-26T11:05:29;23.10;62.00
15384;DHT22;7790;53.022;12.968;2023-06-26T11:09:30;23.20;62.10
15384;DHT22;7790;53.022;12.968;2023-06-26T11:13:34;23.10;61.90
15384;DHT22;7790;53.022;12.968;2023-06-26T11:17:37;23.10;61.90
15384;DHT22;7790;53.022;12.968;2023-06-26T11:21:38;23.10;62.00
15384;DHT22;7790;53.022;12.968;2023-06-26T11:25:39;23.10;61.90
15384;DHT22;7790;53.022;12.968;2023-06-26T11:29:47;23.10;61.90
15384;DHT22;7790;53.022;12.968;2023-06-26T11:33:49;23.20;62.90
15384;DHT22;7790;53.022;12.968;2023-06-26T11:37:50;23.40;63.40
15384;DHT22;7790;53.022;12.968;2023-06-26T11:41:50;23.50;63.60
15384;DHT22;7790;53.022;12.968;2023-06-26T11:45:52;23.50;64.00
15384;DHT22;7790;53.022;12.968;2023-06-26T11:49:53;23.50;64.20
15384;DHT22;7790;53.022;12.968;2023-06-26T11:53:54;23.60;64.30
15384;DHT22;7790;53.022;12.968;2023-06-26T11:57:56;23.60;64.10
15384;DHT22;7790;53.022;12.968;2023-06-26T12:01:57;23.60;64.10
15384;DHT22;7790;53.022;12.968;2023-06-26T12:05:58;23.60;63.90
15384;DHT22;7790;53.022;12.968;2023-06-26T12:10:00;23.60;63.90
15384;DHT22;7790;53.022;12.968;2023-06-26T12:14:01;23.60;63.70
15384;DHT22;7790;53.022;12.968;2023-06-26T12:18:09;23.60;63.70
15384;DHT22;7790;53.022;12.968;2023-06-26T12:22:10;23.60;63.70
15384;DHT22;7790;53.022;12.968;2023-06-26T12:26:19;23.50;63.60
15384;DHT22;7790;53.022;12.968;2023-06-26T12:30:21;23.50;63.50
15384;DHT22;7790;53.022;12.968;2023-06-26T12:34:34;23.50;63.30
15384;DHT22;7790;53.022;12.968;2023-06-26T12:38:36;23.50;63.30
15384;DHT22;7790;53.022;12.968;2023-06-26T12:42:36;23.50;63.20
15384;DHT22;7790;53.022;12.968;2023-06-26T12:46:38;23.50;63.10
15384;DHT22;7790;53.022;12.968;2023-06-26T12:50:43;23.50;63.00
15384;DHT22;7790;53.022;12.968;2023-06-26T12:54:46;23.50;63.10
15384;DHT22;7790;53.022;12.968;2023-06-26T12:58:47;23.50;63.10
15384;DHT22;7790;53.022;12.968;2023-06-26T13:02:48;23.50;62.90
15384;DHT22;7790;53.022;12.968;2023-06-26T13:06:49;23.50;62.80
15384;DHT22;7790;53.022;12.968;2023-06-26T13:10:50;23.50;62.70
15384;DHT22;7790;53.022;12.968;2023-06-26T13:14:51;23.50;62.60
15384;DHT22;7790;53.022;12.968;2023-06-26T13:18:52;23.50;62.50
15384;DHT22;7790;53.022;12.968;2023-06-26T13:22:54;23.60;62.60
15384;DHT22;7790;53.022;12.968;2023-06-26T13:26:55;23.50;62.60
15384;DHT22;7790;53.022;12.968;2023-06-26T13:30:56;23.50;62.50
15384;DHT22;7790;53.022;12.968;2023-06-26T13:34:57;23.50;62.50
15384;DHT22;7790;53.022;12.968;2023-06-26T13:38:58;23.60;62.50
15384;DHT22;7790;53.022;12.968;2023-06-26T13:42:59;23.60;62.40
15384;DHT22;7790;53.022;12.968;2023-06-26T13:47:00;23.50;62.30
15384;DHT22;7790;53.022;12.968;2023-06-26T13:51:01;23.50;62.50
15384;DHT22;7790;53.022;12.968;2023-06-26T13:55:02;23.50;62.50
15384;DHT22;7790;53.022;12.968;2023-06-26T13:59:06;23.50;62.80
15384;DHT22;7790;53.022;12.968;2023-06-26T14:03:07;23.50;62.90
15384;DHT22;7790;53.022;12.968;2023-06-26T14:07:09;23.50;63.10
15384;DHT22;7790;53.022;12.968;2023-06-26T14:11:10;23.50;63.00
15384;DHT22;7790;53.022;12.968;2023-06-26T14:15:11;23.50;63.20
15384;DHT22;7790;53.022;12.968;2023-06-26T14:19:12;23.50;63.40
15384;DHT22;7790;53.022;12.968;2023-06-26T14:23:15;23.50;63.30
15384;DHT22;7790;53.022;12.968;2023-06-26T14:27:16;23.50;63.60
15384;DHT22;7790;53.022;12.968;2023-06-26T14:31:17;23.50;64.00
15384;DHT22;7790;53.022;12.968;2023-06-26T14:35:18;23.50;64.10
15384;DHT22;7790;53.022;12.968;2023-06-26T14:39:19;23.50;64.20
15384;DHT22;7790;53.022;12.968;2023-06-26T14:43:20;23.50;64.30
15384;DHT22;7790;53.022;12.968;2023-06-26T14:47:21;23.50;64.50
15384;DHT22;7790;53.022;12.968;2023-06-26T14:51:22;23.50;64.80
15384;DHT22;7790;53.022;12.968;2023-06-26T14:55:23;23.50;64.80
15384;DHT22;7790;53.022;12.968;2023-06-26T14:59:24;23.50;65.00
15384;DHT22;7790;53.022;12.968;2023-06-26T15:03:26;23.50;65.10
15384;DHT22;7790;53.022;12.968;2023-06-26T15:07:27;23.50;65.10
15384;DHT22;7790;53.022;12.968;2023-06-26T15:11:28;23.50;65.20
15384;DHT22;7790;53.022;12.968;2023-06-26T15:15:29;23.50;65.20
15384;DHT22;7790;53.022;12.968;2023-06-26T15:19:30;23.50;65.50
15384;DHT22;7790;53.022;12.968;2023-06-26T15:23:31;23.50;65.50
15384;DHT22;7790;53.022;12.968;2023-06-26T15:27:32;23.50;65.50
15384;DHT22;7790;53.022;12.968;2023-06-26T15:31:33;23.50;65.40
15384;DHT22;7790;53.022;12.968;2023-06-26T15:35:34;23.50;65.30
15384;DHT22;7790;53.022;12.968;2023-06-26T15:39:35;23.50;65.60
15384;DHT22;7790;53.022;12.968;2023-06-26T15:43:35;23.50;65.60
15384;DHT22;7790;53.022;12.968;2023-06-26T15:47:36;23.50;65.40
15384;DHT22;7790;53.022;12.968;2023-06-26T15:51:37;23.50;65.50
15384;DHT22;7790;53.022;12.968;2023-06-26T15:55:38;23.50;65.60
15384;DHT22;7790;53.022;12.968;2023-06-26T15:59:39;23.40;65.50
15384;DHT22;7790;53.022;12.968;2023-06-26T16:03:41;23.50;65.40
15384;DHT22;7790;53.022;12.968;2023-06-26T16:07:42;23.50;65.30
15384;DHT22;7790;53.022;12.968;2023-06-26T16:11:43;23.50;65.40
15384;DHT22;7790;53.022;12.968;2023-06-26T16:15:43;23.50;65.60
15384;DHT22;7790;53.022;12.968;2023-06-26T16:19:44;23.50;65.70
15384;DHT22;7790;53.022;12.968;2023-06-26T16:23:45;23.50;65.80
15384;DHT22;7790;53.022;12.968;2023-06-26T16:27:46;23.50;65.80
15384;DHT22;7790;53.022;12.968;2023-06-26T16:31:47;23.50;65.80
15384;DHT22;7790;53.022;12.968;2023-06-26T16:35:49;23.50;65.70
15384;DHT22;7790;53.022;12.968;2023-06-26T16:39:51;23.50;65.70
15384;DHT22;7790;53.022;12.968;2023-06-26T16:43:53;23.50;65.70
15384;DHT22;7790;53.022;12.968;2023-06-26T16:47:54;23.60;65.60
15384;DHT22;7790;53.022;12.968;2023-06-26T16:51:55;23.60;65.60
15384;DHT22;7790;53.022;12.968;2023-06-26T16:55:58;23.60;65.60
15384;DHT22;7790;53.022;12.968;2023-06-26T16:59:59;23.60;65.50
15384;DHT22;7790;53.022;12.968;2023-06-26T17:04:00;23.60;65.50
15384;DHT22;7790;53.022;12.968;2023-06-26T17:08:01;23.60;65.40
15384;DHT22;7790;53.022;12.968;2023-06-26T17:12:02;23.60;65.60
15384;DHT22;7790;53.022;12.968;2023-06-26T17:16:03;23.50;65.60
15384;DHT22;7790;53.022;12.968;2023-06-26T17:20:05;23.60;65.60
15384;DHT22;7790;53.022;12.968;2023-06-26T17:24:09;23.60;66.30
15384;DHT22;7790;53.022;12.968;2023-06-26T17:28:10;23.50;65.50
15384;DHT22;7790;53.022;12.968;2023-06-26T17:32:11;23.50;65.50
15384;DHT22;7790;53.022;12.968;2023-06-26T17:36:12;23.60;65.60
15384;DHT22;7790;53.022;12.968;2023-06-26T17:40:13;23.60;65.60
15384;DHT22;7790;53.022;12.968;2023-06-26T17:44:13;23.60;65.50
15384;DHT22;7790;53.022;12.968;2023-06-26T17:48:15;23.60;65.40
15384;DHT22;7790;53.022;12.968;2023-06-26T17:52:15;23.60;65.20
15384;DHT22;7790;53.022;12.968;2023-06-26T17:56:16;23.50;65.10
15384;DHT22;7790;53.022;12.968;2023-06-26T18:00:17;23.50;65.00
15384;DHT22;7790;53.022;12.968;2023-06-26T18:04:18;23.50;64.80
15384;DHT22;7790;53.022;12.968;2023-06-26T18:08:19;23.50;64.40
15384;DHT22;7790;53.022;12.968;2023-06-26T18:12:20;23.50;64.20
15384;DHT22;7790;53.022;12.968;2023-06-26T18:16:21;23.50;64.00
15384;DHT22;7790;53.022;12.968;2023-06-26T18:20:22;23.50;63.70
15384;DHT22;7790;53.022;12.968;2023-06-26T18:24:22;23.50;63.40
15384;DHT22;7790;53.022;12.968;2023-06-26T18:28:23;23.50;63.00
15384;DHT22;7790;53.022;12.968;2023-06-26T18:32:24;23.50;63.40
15384;DHT22;7790;53.022;12.968;2023-06-26T18:36:25;23.50;62.50
15384;DHT22;7790;53.022;12.968;2023-06-26T18:40:28;23.40;62.30
15384;DHT22;7790;53.022;12.968;2023-06-26T18:44:29;23.40;61.90
15384;DHT22;7790;53.022;12.968;2023-06-26T18:48:30;23.40;61.60
15384;DHT22;7790;53.022;12.968;2023-06-26T18:52:31;23.40;61.60
15384;DHT22;7790;53.022;12.968;2023-06-26T18:56:33;23.40;61.30
15384;DHT22;7790;53.022;12.968;2023-06-26T19:00:34;23.40;61.10
15384;DHT22;7790;53.022;12.968;2023-06-26T19:04:35;23.40;61.00
15384;DHT22;7790;53.022;12.968;2023-06-26T19:08:36;23.30;60.70
15384;DHT22;7790;53.022;12.968;2023-06-26T19:12:36;23.30;60.50
15384;DHT22;7790;53.022;12.968;2023-06-26T19:16:37;23.30;60.40
15384;DHT22;7790;53.022;12.968;2023-06-26T19:20:40;23.30;60.40
15384;DHT22;7790;53.022;12.968;2023-06-26T19:24:41;23.30;60.10
15384;DHT22;7790;53.022;12.968;2023-06-26T19:28:41;23.30;60.00
15384;DHT22;7790;53.022;12.968;2023-06-26T19:32:42;23.30;59.90
15384;DHT22;7790;53.022;12.968;2023-06-26T19:36:43;23.30;59.80
15384;DHT22;7790;53.022;12.968;2023-06-26T19:40:44;23.30;59.70
15384;DHT22;7790;53.022;12.968;2023-06-26T19:44:46;23.30;59.60
15384;DHT22;7790;53.022;12.968;2023-06-26T19:48:47;23.30;59.10
15384;DHT22;7790;53.022;12.968;2023-06-26T19:52:48;23.00;56.70
15384;DHT22;7790;53.022;12.968;2023-06-26T19:56:49;22.90;56.40
15384;DHT22;7790;53.022;12.968;2023-06-26T20:00:53;23.00;56.40
15384;DHT22;7790;53.022;12.968;2023-06-26T20:04:54;22.90;55.70
15384;DHT22;7790;53.022;12.968;2023-06-26T20:08:55;22.80;55.70
15384;DHT22;7790;53.022;12.968;2023-06-26T20:12:57;22.80;55.50
15384;DHT22;7790;53.022;12.968;2023-06-26T20:16:58;22.70;55.00
15384;DHT22;7790;53.022;12.968;2023-06-26T20:20:59;22.60;55.20
15384;DHT22;7790;53.022;12.968;2023-06-26T20:25:00;22.60;55.30
15384;DHT22;7790;53.022;12.968;2023-06-26T20:29:01;22.70;55.10
15384;DHT22;7790;53.022;12.968;2023-06-26T20:33:02;22.60;54.70
15384;DHT22;7790;53.022;12.968;2023-06-26T20:37:03;22.60;54.50
15384;DHT22;7790;53.022;12.968;2023-06-26T20:41:05;22.60;54.70
15384;DHT22;7790;53.022;12.968;2023-06-26T20:45:07;22.60;54.20
15384;DHT22;7790;53.022;12.968;2023-06-26T20:49:08;22.50;54.30
15384;DHT22;7790;53.022;12.968;2023-06-26T20:53:09;22.50;54.00
15384;DHT22;7790;53.022;12.968;2023-06-26T20:57:10;22.40;53.90
15384;DHT22;7790;53.022;12.968;2023-06-26T21:01:11;22.30;53.90
15384;DHT22;7790;53.022;12.968;2023-06-26T21:05:12;22.10;52.70
15384;DHT22;7790;53.022;12.968;2023-06-26T21:09:13;22.10;52.50
15384;DHT22;7790;53.022;12.968;2023-06-26T21:13:14;22.10;52.40
15384;DHT22;7790;53.022;12.968;2023-06-26T21:17:15;22.00;51.70
15384;DHT22;7790;53.022;12.968;2023-06-26T21:21:16;21.90;52.30
15384;DHT22;7790;53.022;12.968;2023-06-26T21:25:17;21.90;52.30
15384;DHT22;7790;53.022;12.968;2023-06-26T21:29:18;21.90;52.50
15384;DHT22;7790;53.022;12.968;2023-06-26T21:33:18;21.90;52.30
15384;DHT22;7790;53.022;12.968;2023-06-26T21:37:19;22.00;52.60
15384;DHT22;7790;53.022;12.968;2023-06-26T21:41:20;21.90;52.40
15384;DHT22;7790;53.022;12.968;2023-06-26T21:45:21;21.80;52.50
15384;DHT22;7790;53.022;12.968;2023-06-26T21:49:22;21.80;52.60
15384;DHT22;7790;53.022;12.968;2023-06-26T21:53:23;21.70;52.70
15384;DHT22;7790;53.022;12.968;2023-06-26T21:57:24;21.70;52.50
15384;DHT22;7790;53.022;12.968;2023-06-26T22:01:25;21.70;52.90
15384;DHT22;7790;53.022;12.968;2023-06-26T22:05:26;21.50;52.80
15384;DHT22;7790;53.022;12.968;2023-06-26T22:09:26;21.60;53.50
15384;DHT22;7790;53.022;12.968;2023-06-26T22:13:27;21.60;53.20
15384;DHT22;7790;53.022;12.968;2023-06-26T22:17:29;21.60;53.20
15384;DHT22;7790;53.022;12.968;2023-06-26T22:21:33;21.50;53.00
15384;DHT22;7790;53.022;12.968;2023-06-26T22:25:36;21.50;53.50
15384;DHT22;7790;53.022;12.968;2023-06-26T22:29:37;21.50;53.70
15384;DHT22;7790;53.022;12.968;2023-06-26T22:33:38;21.50;53.40
15384;DHT22;7790;53.022;12.968;2023-06-26T22:37:39;21.40;52.90
15384;DHT22;7790;53.022;12.968;2023-06-26T22:41:40;21.40;53.40
15384;DHT22;7790;53.022;12.968;2023-06-26T22:45:41;21.30;53.80
15384;DHT22;7790;53.022;12.968;2023-06-26T22:49:42;21.20;54.10
15384;DHT22;7790;53.022;12.968;2023-06-26T22:53:43;21.20;53.90
15384;DHT22;7790;53.022;12.968;2023-06-26T22:57:44;21.20;53.80
15384;DHT22;7790;53.022;12.968;2023-06-26T23:01:45;21.30;54.20
15384;DHT22;7790;53.022;12.968;2023-06-26T23:05:46;21.20;54.40
15384;DHT22;7790;53.022;12.968;2023-06-26T23:09:46;21.20;54.20
15384;DHT22;7790;53.022;12.968;2023-06-26T23:13:48;21.30;54.70
15384;DHT22;7790;53.022;12.968;2023-06-26T23:17:49;21.20;54.10
15384;DHT22;7790;53.022;12.968;2023-06-26T23:21:49;21.00;54.40
15384;DHT22;7790;53.022;12.968;2023-06-26T23:25:50;21.00;54.60
15384;DHT22;7790;53.022;12.968;2023-06-26T23:29:51;20.90;54.80
15384;DHT22;7790;53.022;12.968;2023-06-26T23:33:54;20.90;54.80
15384;DHT22;7790;53.022;12.968;2023-06-26T23:37:55;20.80;55.20
15384;DHT22;7790;53.022;12.968;2023-06-26T23:41:56;20.80;55.00
15384;DHT22;7790;53.022;12.968;2023-06-26T23:45:57;20.60;55.00
15384;DHT22;7790;53.022;12.968;2023-06-26T23:49:59;20.60;55.50
15384;DHT22;7790;53.022;12.968;2023-06-26T23:54:00;20.60;55.10
15384;DHT22;7790;53.022;12.968;2023-06-26T23:58:00;20.60;55.50
